createdAt,value
2018-09-16T00:01:13.722Z,11.50
2018-09-16T00:03:42.287Z,11.40
2018-09-16T00:06:10.955Z,11.30
2018-09-16T00:08:39.634Z,11.20
2018-09-16T00:11:08.302Z,11.10
2018-09-16T00:13:36.934Z,11.10
2018-09-16T00:16:05.622Z,11.10
2018-09-16T00:18:38.894Z,11.10
2018-09-16T00:21:07.518Z,11.20
2018-09-16T00:23:36.157Z,11.10
2018-09-16T00:26:05.850Z,11.00
2018-09-16T00:28:34.400Z,11.10
2018-09-16T00:31:03.213Z,11.00
2018-09-16T00:33:31.847Z,11.00
2018-09-16T00:36:00.512Z,10.90
2018-09-16T00:38:29.135Z,10.90
2018-09-16T00:40:57.847Z,10.90
2018-09-16T00:43:26.431Z,10.90
2018-09-16T00:45:55.066Z,10.90
2018-09-16T00:48:33.796Z,10.90
2018-09-16T00:51:02.440Z,10.90
2018-09-16T00:53:31.061Z,10.90
2018-09-16T00:55:59.649Z,10.90
2018-09-16T00:58:28.284Z,10.80
2018-09-16T01:00:58.124Z,10.80
2018-09-16T01:03:26.850Z,10.70
2018-09-16T01:06:00.620Z,10.70
2018-09-16T01:08:29.153Z,10.60
2018-09-16T01:10:58.516Z,10.60
2018-09-16T01:13:27.128Z,10.70
2018-09-16T01:15:57.845Z,10.60
2018-09-16T01:18:26.442Z,10.60
2018-09-16T01:20:55.010Z,10.60
2018-09-16T01:23:23.599Z,10.60
2018-09-16T01:25:52.214Z,10.60
2018-09-16T01:28:20.825Z,10.60
2018-09-16T01:30:49.553Z,10.60
2018-09-16T01:33:18.206Z,10.70
2018-09-16T01:35:46.848Z,10.70
2018-09-16T01:38:20.696Z,10.70
2018-09-16T01:40:49.215Z,10.60
2018-09-16T01:43:17.813Z,10.50
2018-09-16T01:45:46.503Z,10.50
2018-09-16T01:48:15.114Z,10.40
2018-09-16T01:50:43.670Z,10.30
2018-09-16T01:53:12.331Z,10.20
2018-09-16T01:55:40.925Z,10.20
2018-09-16T01:58:09.508Z,10.10
2018-09-16T02:00:38.157Z,10.10
2018-09-16T02:03:07.048Z,10.00
2018-09-16T02:05:40.779Z,10.00
2018-09-16T02:08:09.374Z,9.90
2018-09-16T02:10:39.063Z,9.90
2018-09-16T02:13:07.773Z,10.00
2018-09-16T02:15:36.407Z,9.90
2018-09-16T02:18:05.069Z,9.90
2018-09-16T02:20:33.649Z,9.80
2018-09-16T02:23:02.242Z,9.80
2018-09-16T02:25:30.788Z,9.70
2018-09-16T02:27:59.486Z,9.80
2018-09-16T02:30:28.632Z,9.80
2018-09-16T02:32:57.233Z,9.70
2018-09-16T02:35:25.783Z,9.70
2018-09-16T02:37:54.371Z,9.70
2018-09-16T02:40:22.931Z,9.70
2018-09-16T02:42:58.823Z,9.70
2018-09-16T02:45:27.714Z,9.70
2018-09-16T02:47:56.487Z,9.70
2018-09-16T02:50:25.113Z,9.70
2018-09-16T02:52:53.667Z,9.60
2018-09-16T02:55:22.302Z,9.70
2018-09-16T02:57:50.854Z,9.60
2018-09-16T03:00:19.406Z,9.60
2018-09-16T03:02:48.018Z,9.70
2018-09-16T03:05:21.889Z,9.70
2018-09-16T03:07:50.758Z,9.60
2018-09-16T03:10:19.649Z,9.60
2018-09-16T03:12:54.334Z,9.60
2018-09-16T03:15:23.258Z,9.50
2018-09-16T03:17:52.142Z,9.40
2018-09-16T03:20:20.994Z,9.50
2018-09-16T03:22:49.913Z,9.50
2018-09-16T03:25:18.790Z,9.40
2018-09-16T03:27:47.746Z,9.40
2018-09-16T03:30:16.602Z,9.50
2018-09-16T03:32:45.450Z,9.40
2018-09-16T03:35:14.432Z,9.40
2018-09-16T03:37:43.056Z,9.30
2018-09-16T03:40:11.661Z,9.30
2018-09-16T03:42:40.265Z,9.30
2018-09-16T03:45:09.497Z,9.30
2018-09-16T03:47:38.443Z,9.30
2018-09-16T03:50:07.049Z,9.30
2018-09-16T03:52:35.654Z,9.30
2018-09-16T03:55:04.269Z,9.40
2018-09-16T03:57:32.841Z,9.30
2018-09-16T04:00:01.487Z,9.30
2018-09-16T04:02:30.021Z,9.30
2018-09-16T04:04:58.702Z,9.30
2018-09-16T04:07:27.339Z,9.30
2018-09-16T04:09:55.916Z,9.20
2018-09-16T04:12:24.622Z,9.20
2018-09-16T04:15:00.832Z,9.20
2018-09-16T04:17:29.525Z,9.10
2018-09-16T04:19:58.130Z,9.10
2018-09-16T04:22:26.720Z,9.10
2018-09-16T04:24:55.357Z,9.00
2018-09-16T04:27:24.014Z,9.00
2018-09-16T04:29:55.910Z,9.00
2018-09-16T04:32:24.960Z,8.90
2018-09-16T04:34:53.627Z,8.90
2018-09-16T04:37:22.276Z,8.90
2018-09-16T04:39:50.843Z,8.90
2018-09-16T04:42:19.497Z,9.00
2018-09-16T04:44:48.260Z,9.00
2018-09-16T04:47:22.164Z,9.00
2018-09-16T04:49:50.758Z,9.00
2018-09-16T04:52:19.368Z,9.00
2018-09-16T04:54:47.900Z,9.00
2018-09-16T04:57:16.453Z,9.00
2018-09-16T04:59:45.176Z,9.00
2018-09-16T05:02:13.762Z,9.00
2018-09-16T05:04:43.319Z,9.00
2018-09-16T05:07:11.943Z,8.90
2018-09-16T05:09:40.510Z,8.90
2018-09-16T05:12:09.177Z,8.90
2018-09-16T05:14:37.711Z,8.90
2018-09-16T05:17:06.267Z,8.90
2018-09-16T05:19:34.903Z,9.00
2018-09-16T05:22:03.486Z,9.00
2018-09-16T05:24:32.108Z,9.00
2018-09-16T05:27:00.710Z,9.00
2018-09-16T05:29:29.317Z,9.00
2018-09-16T05:31:57.893Z,9.00
2018-09-16T05:34:26.473Z,9.10
2018-09-16T05:36:55.004Z,9.10
2018-09-16T05:39:23.629Z,9.10
2018-09-16T05:41:52.237Z,9.10
2018-09-16T05:44:20.749Z,9.20
2018-09-16T05:46:49.296Z,9.20
2018-09-16T05:49:17.886Z,9.20
2018-09-16T05:51:46.552Z,9.20
2018-09-16T05:54:15.190Z,9.20
2018-09-16T05:56:43.848Z,9.30
2018-09-16T05:59:12.579Z,9.30
2018-09-16T06:01:41.095Z,9.40
2018-09-16T06:04:09.707Z,9.50
2018-09-16T06:06:38.293Z,9.60
2018-09-16T06:09:10.222Z,9.70
2018-09-16T06:11:38.791Z,9.80
2018-09-16T06:14:07.361Z,9.90
2018-09-16T06:16:36.098Z,9.90
2018-09-16T06:19:04.802Z,10.00
2018-09-16T06:21:46.121Z,10.10
2018-09-16T06:24:16.924Z,10.20
2018-09-16T06:26:45.523Z,10.30
2018-09-16T06:29:14.640Z,10.40
2018-09-16T06:31:43.596Z,10.40
2018-09-16T06:34:13.963Z,10.50
2018-09-16T06:36:44.114Z,10.70
2018-09-16T06:39:14.502Z,10.80
2018-09-16T06:41:43.311Z,11.00
2018-09-16T06:44:13.044Z,11.10
2018-09-16T06:46:41.641Z,11.20
2018-09-16T06:49:10.226Z,11.30
2018-09-16T06:51:40.534Z,11.40
2018-09-16T06:54:09.198Z,11.50
2018-09-16T06:56:37.809Z,11.70
2018-09-16T06:59:11.340Z,11.80
2018-09-16T07:01:40.910Z,11.90
2018-09-16T07:04:09.545Z,12.10
2018-09-16T07:06:38.517Z,12.20
2018-09-16T07:09:12.125Z,12.30
2018-09-16T07:11:41.116Z,12.40
2018-09-16T07:14:09.729Z,12.50
2018-09-16T07:16:38.437Z,12.60
2018-09-16T07:19:07.590Z,12.80
2018-09-16T07:21:36.211Z,13.00
2018-09-16T07:24:04.861Z,13.10
2018-09-16T07:26:33.480Z,13.20
2018-09-16T07:29:02.050Z,13.20
2018-09-16T07:31:30.637Z,13.40
2018-09-16T07:33:59.221Z,13.60
2018-09-16T07:36:27.866Z,13.80
2018-09-16T07:39:02.121Z,13.90
2018-09-16T07:41:30.676Z,14.00
2018-09-16T07:43:59.196Z,14.20
2018-09-16T07:46:29.870Z,14.30
2018-09-16T07:48:59.007Z,14.50
2018-09-16T07:51:27.642Z,14.60
2018-09-16T07:53:57.258Z,14.80
2018-09-16T07:56:25.823Z,15.10
2018-09-16T07:58:54.552Z,15.20
2018-09-16T08:01:23.163Z,15.30
2018-09-16T08:03:51.848Z,15.30
2018-09-16T08:06:20.476Z,15.40
2018-09-16T08:08:49.106Z,15.50
2018-09-16T08:11:17.703Z,15.70
2018-09-16T08:13:46.458Z,16.00
2018-09-16T08:16:15.042Z,16.20
2018-09-16T08:18:46.996Z,16.50
2018-09-16T08:21:15.606Z,16.70
2018-09-16T08:23:46.331Z,17.00
2018-09-16T08:26:14.899Z,17.10
2018-09-16T08:28:43.566Z,17.00
2018-09-16T08:31:12.174Z,17.10
2018-09-16T08:33:40.790Z,17.30
2018-09-16T08:36:09.572Z,17.50
2018-09-16T08:38:38.118Z,17.80
2018-09-16T08:41:06.717Z,18.10
2018-09-16T08:43:35.573Z,18.40
2018-09-16T08:46:04.255Z,18.60
2018-09-16T08:48:32.851Z,18.80
2018-09-16T08:51:01.455Z,19.00
2018-09-16T08:53:30.040Z,19.10
2018-09-16T08:55:58.663Z,19.40
2018-09-16T08:58:27.543Z,19.70
2018-09-16T09:00:56.003Z,19.80
2018-09-16T09:03:24.579Z,19.90
2018-09-16T09:05:53.163Z,20.10
2018-09-16T09:08:22.468Z,20.30
2018-09-16T09:10:51.096Z,20.50
2018-09-16T09:13:19.694Z,20.70
2018-09-16T09:15:48.272Z,21.00
2018-09-16T09:18:16.832Z,21.20
2018-09-16T09:20:46.492Z,21.20
2018-09-16T09:23:15.122Z,21.20
2018-09-16T09:25:43.785Z,21.20
2018-09-16T09:28:12.381Z,21.30
2018-09-16T09:30:41.021Z,21.40
2018-09-16T09:33:10.571Z,21.50
2018-09-16T09:35:39.228Z,21.60
2018-09-16T09:38:07.849Z,21.90
2018-09-16T09:40:36.521Z,22.30
2018-09-16T09:43:05.144Z,22.40
2018-09-16T09:45:33.737Z,22.50
2018-09-16T09:48:02.339Z,22.70
2018-09-16T09:50:31.025Z,22.90
2018-09-16T09:52:59.564Z,23.00
2018-09-16T09:55:28.287Z,23.00
2018-09-16T09:57:56.844Z,23.20
2018-09-16T10:00:30.871Z,23.30
2018-09-16T10:03:01.501Z,23.50
2018-09-16T10:05:33.486Z,23.50
2018-09-16T10:08:02.014Z,23.70
2018-09-16T10:10:32.699Z,24.00
2018-09-16T10:13:01.311Z,24.10
2018-09-16T10:15:29.958Z,24.10
2018-09-16T10:17:58.642Z,24.20
2018-09-16T10:20:27.366Z,24.30
2018-09-16T10:22:56.105Z,24.50
2018-09-16T10:25:24.711Z,24.70
2018-09-16T10:27:53.307Z,24.80
2018-09-16T10:30:21.867Z,24.90
2018-09-16T10:32:50.504Z,25.00
2018-09-16T10:35:19.088Z,25.00
2018-09-16T10:37:47.693Z,25.10
2018-09-16T10:40:16.245Z,25.20
2018-09-16T10:42:44.860Z,25.50
2018-09-16T10:45:13.476Z,25.70
2018-09-16T10:47:44.161Z,25.90
2018-09-16T10:50:12.823Z,26.10
2018-09-16T10:52:41.410Z,26.10
2018-09-16T10:55:09.962Z,26.00
2018-09-16T10:57:38.594Z,26.30
2018-09-16T11:00:07.382Z,26.20
2018-09-16T11:02:36.074Z,26.30
2018-09-16T11:05:06.049Z,26.40
2018-09-16T11:07:34.662Z,26.50
2018-09-16T11:10:05.341Z,26.40
2018-09-16T11:12:34.705Z,26.40
2018-09-16T11:15:03.412Z,26.60
2018-09-16T11:17:35.345Z,26.60
2018-09-16T11:20:03.983Z,26.70
2018-09-16T11:22:32.711Z,26.50
2018-09-16T11:25:01.404Z,26.50
2018-09-16T11:27:29.969Z,26.70
2018-09-16T11:30:08.990Z,26.90
2018-09-16T11:32:37.501Z,26.70
2018-09-16T11:35:06.254Z,26.80
2018-09-16T11:37:35.010Z,27.00
2018-09-16T11:40:03.634Z,27.30
2018-09-16T11:42:32.217Z,27.30
2018-09-16T11:45:00.792Z,27.50
2018-09-16T11:47:29.445Z,27.50
2018-09-16T11:49:58.002Z,27.60
2018-09-16T11:52:26.703Z,27.70
2018-09-16T11:54:55.261Z,27.70
2018-09-16T11:57:23.872Z,27.70
2018-09-16T11:59:52.442Z,27.60
2018-09-16T12:02:21.059Z,27.50
2018-09-16T12:04:49.868Z,27.60
2018-09-16T12:07:19.787Z,27.70
2018-09-16T12:09:48.461Z,27.60
2018-09-16T12:12:17.068Z,27.80
2018-09-16T12:14:45.687Z,27.80
2018-09-16T12:17:14.277Z,27.80
2018-09-16T12:19:42.954Z,27.90
2018-09-16T12:22:11.518Z,27.90
2018-09-16T12:24:40.088Z,28.10
2018-09-16T12:27:08.645Z,28.20
2018-09-16T12:29:37.280Z,28.20
2018-09-16T12:32:05.972Z,28.20
2018-09-16T12:34:34.580Z,28.10
2018-09-16T12:37:03.094Z,28.30
2018-09-16T12:39:39.199Z,28.30
2018-09-16T12:42:07.801Z,28.20
2018-09-16T12:44:36.420Z,28.10
2018-09-16T12:47:05.107Z,28.10
2018-09-16T12:49:33.708Z,27.90
2018-09-16T12:52:02.248Z,27.90
2018-09-16T12:54:30.861Z,27.80
2018-09-16T12:56:59.428Z,27.90
2018-09-16T12:59:28.072Z,27.90
2018-09-16T13:01:56.632Z,28.00
2018-09-16T13:04:25.304Z,27.90
2018-09-16T13:06:53.834Z,28.10
2018-09-16T13:09:22.462Z,28.30
2018-09-16T13:11:51.074Z,28.50
2018-09-16T13:14:31.476Z,28.60
2018-09-16T13:17:00.062Z,28.50
2018-09-16T13:19:28.687Z,28.60
2018-09-16T13:21:57.991Z,28.50
2018-09-16T13:24:26.563Z,28.50
2018-09-16T13:26:55.080Z,28.60
2018-09-16T13:29:23.674Z,28.60
2018-09-16T13:31:52.186Z,28.60
2018-09-16T13:34:28.719Z,28.60
2018-09-16T13:36:57.299Z,28.80
2018-09-16T13:39:25.914Z,29.20
2018-09-16T13:41:54.550Z,29.00
2018-09-16T13:44:23.111Z,29.10
2018-09-16T13:46:51.675Z,29.10
2018-09-16T13:49:23.514Z,29.10
2018-09-16T13:51:52.121Z,28.90
2018-09-16T13:54:20.780Z,28.90
2018-09-16T13:56:49.372Z,28.80
2018-09-16T13:59:17.977Z,28.90
2018-09-16T14:01:46.558Z,29.10
2018-09-16T14:04:15.301Z,29.30
2018-09-16T14:06:54.692Z,29.40
2018-09-16T14:09:23.318Z,29.30
2018-09-16T14:11:51.941Z,29.30
2018-09-16T14:14:20.587Z,29.40
2018-09-16T14:16:49.219Z,29.50
2018-09-16T14:19:17.859Z,29.40
2018-09-16T14:21:46.472Z,29.20
2018-09-16T14:27:08.930Z,29.00
2018-09-16T14:29:37.507Z,28.80
2018-09-16T14:32:06.126Z,28.90
2018-09-16T14:34:34.729Z,28.80
2018-09-16T14:37:03.312Z,29.00
2018-09-16T14:39:31.887Z,29.00
2018-09-16T14:42:00.449Z,29.10
2018-09-16T14:44:29.058Z,29.10
2018-09-16T14:46:57.576Z,29.00
2018-09-16T14:49:26.135Z,29.00
2018-09-16T14:51:54.733Z,29.00
2018-09-16T14:54:23.423Z,28.70
2018-09-16T14:57:02.970Z,28.90
2018-09-16T14:59:31.578Z,28.80
2018-09-16T15:02:00.148Z,28.90
2018-09-16T15:04:28.784Z,28.80
2018-09-16T15:06:57.449Z,29.00
2018-09-16T15:09:26.013Z,28.90
2018-09-16T15:11:54.555Z,29.10
2018-09-16T15:14:23.199Z,29.10
2018-09-16T15:16:51.777Z,28.80
2018-09-16T15:19:20.366Z,28.80
2018-09-16T15:21:48.981Z,28.60
2018-09-16T15:24:17.529Z,28.60
2018-09-16T15:26:46.474Z,28.50
2018-09-16T15:29:17.148Z,28.40
2018-09-16T15:31:45.744Z,28.30
2018-09-16T15:34:14.382Z,28.30
2018-09-16T15:36:43.002Z,28.30
2018-09-16T15:39:11.628Z,28.20
2018-09-16T15:41:40.547Z,28.20
2018-09-16T15:44:09.907Z,28.00
2018-09-16T15:46:38.536Z,28.00
2018-09-16T15:49:07.490Z,27.90
2018-09-16T15:51:36.189Z,28.00
2018-09-16T15:54:04.773Z,27.90
2018-09-16T15:56:33.387Z,28.00
2018-09-16T15:59:01.945Z,28.20
2018-09-16T16:01:34.467Z,28.40
2018-09-16T16:04:04.131Z,28.50
2018-09-16T16:06:32.796Z,28.40
2018-09-16T16:09:01.387Z,28.20
2018-09-16T16:11:29.959Z,28.30
2018-09-16T16:13:58.581Z,28.30
2018-09-16T16:16:27.268Z,28.30
2018-09-16T16:18:55.907Z,28.20
2018-09-16T16:21:28.002Z,28.10
2018-09-16T16:23:56.565Z,28.10
2018-09-16T16:26:27.294Z,28.10
2018-09-16T16:28:56.044Z,27.90
2018-09-16T16:31:24.617Z,27.90
2018-09-16T16:33:53.192Z,27.80
2018-09-16T16:36:21.888Z,27.70
2018-09-16T16:38:50.494Z,27.60
2018-09-16T16:41:19.094Z,27.50
2018-09-16T16:43:48.739Z,27.40
2018-09-16T16:46:17.341Z,27.30
2018-09-16T16:48:50.612Z,27.20
2018-09-16T16:51:19.448Z,27.20
2018-09-16T16:53:48.239Z,27.20
2018-09-16T16:56:17.171Z,27.10
2018-09-16T16:58:45.752Z,27.00
2018-09-16T17:01:14.486Z,27.00
2018-09-16T17:03:43.033Z,26.50
2018-09-16T17:06:11.621Z,26.10
2018-09-16T17:08:40.572Z,25.80
2018-09-16T17:11:31.937Z,25.50
2018-09-16T17:14:00.502Z,25.20
2018-09-16T17:16:29.126Z,25.00
2018-09-16T17:18:57.762Z,24.90
2018-09-16T17:21:26.479Z,24.50
2018-09-16T17:23:55.036Z,24.30
2018-09-16T17:26:23.912Z,24.10
2018-09-16T17:28:52.698Z,23.80
2018-09-16T17:31:21.576Z,23.60
2018-09-16T17:33:50.541Z,23.30
2018-09-16T17:36:19.328Z,23.20
2018-09-16T17:38:48.055Z,22.90
2018-09-16T17:41:16.684Z,22.60
2018-09-16T17:43:51.094Z,22.40
2018-09-16T17:46:19.651Z,22.20
2018-09-16T17:48:48.540Z,22.10
2018-09-16T17:51:18.456Z,21.90
2018-09-16T17:53:48.348Z,21.70
2018-09-16T17:56:17.335Z,21.60
2018-09-16T17:58:46.013Z,21.50
2018-09-16T18:01:14.648Z,21.30
2018-09-16T18:03:43.365Z,21.20
2018-09-16T18:06:11.945Z,21.10
2018-09-16T18:08:44.872Z,21.10
2018-09-16T18:11:14.412Z,21.00
2018-09-16T18:13:45.540Z,20.90
2018-09-16T18:16:14.141Z,20.80
2018-09-16T18:18:43.114Z,20.70
2018-09-16T18:21:12.954Z,20.60
2018-09-16T18:23:47.495Z,20.60
2018-09-16T18:26:16.429Z,20.50
2018-09-16T18:28:45.054Z,20.50
2018-09-16T18:31:15.734Z,20.40
2018-09-16T18:33:44.286Z,20.30
2018-09-16T18:36:16.031Z,20.30
2018-09-16T18:38:44.574Z,20.30
2018-09-16T18:41:13.155Z,20.10
2018-09-16T18:43:41.813Z,20.10
2018-09-16T18:46:12.473Z,20.10
2018-09-16T18:48:41.796Z,20.10
2018-09-16T18:51:11.516Z,20.10
2018-09-16T18:53:40.095Z,20.10
2018-09-16T18:56:08.644Z,20.10
2018-09-16T18:58:37.232Z,20.00
2018-09-16T19:01:07.186Z,19.90
2018-09-16T19:03:37.838Z,19.80
2018-09-16T19:06:06.641Z,19.80
2018-09-16T19:08:36.275Z,19.70
2018-09-16T19:11:06.094Z,19.70
2018-09-16T19:13:34.683Z,19.60
2018-09-16T19:16:03.303Z,19.50
2018-09-16T19:18:32.006Z,19.30
2018-09-16T19:21:00.552Z,19.30
2018-09-16T19:23:29.110Z,19.30
2018-09-16T19:25:57.726Z,19.30
2018-09-16T19:28:26.378Z,19.10
2018-09-16T19:30:54.990Z,19.00
2018-09-16T19:33:23.671Z,19.00
2018-09-16T19:35:52.274Z,19.00
2018-09-16T19:38:20.914Z,19.00
2018-09-16T19:40:49.490Z,19.00
2018-09-16T19:43:18.191Z,19.00
2018-09-16T19:45:46.747Z,19.00
2018-09-16T19:48:15.336Z,18.90
2018-09-16T19:50:43.947Z,18.70
2018-09-16T19:53:12.579Z,18.70
2018-09-16T19:55:41.200Z,18.60
2018-09-16T19:58:09.843Z,18.40
2018-09-16T20:00:38.440Z,18.30
2018-09-16T20:03:07.017Z,18.30
2018-09-16T20:05:35.672Z,18.30
2018-09-16T20:08:04.263Z,18.10
2018-09-16T20:10:37.615Z,18.10
2018-09-16T20:13:06.257Z,18.10
2018-09-16T20:15:34.952Z,18.00
2018-09-16T20:18:03.543Z,18.00
2018-09-16T20:20:32.127Z,18.10
2018-09-16T20:23:00.699Z,18.00
2018-09-16T20:25:29.357Z,18.00
2018-09-16T20:27:58.987Z,18.00
2018-09-16T20:30:27.602Z,18.00
2018-09-16T20:32:56.750Z,18.00
2018-09-16T20:35:25.379Z,17.90
2018-09-16T20:37:53.974Z,17.90
2018-09-16T20:40:22.594Z,17.70
2018-09-16T20:43:01.276Z,17.50
2018-09-16T20:45:29.904Z,17.50
2018-09-16T20:47:58.487Z,17.40
2018-09-16T20:50:27.112Z,17.40
2018-09-16T20:52:55.656Z,17.40
2018-09-16T20:55:24.322Z,17.30
2018-09-16T20:57:52.959Z,17.40
2018-09-16T21:00:21.592Z,17.30
2018-09-16T21:02:50.231Z,17.30
2018-09-16T21:05:18.734Z,17.20
2018-09-16T21:07:47.284Z,17.20
2018-09-16T21:10:17.247Z,17.10
2018-09-16T21:12:45.763Z,17.00
2018-09-16T21:15:14.400Z,16.90
2018-09-16T21:17:43.016Z,16.80
2018-09-16T21:20:11.662Z,16.80
2018-09-16T21:22:40.289Z,16.80
2018-09-16T21:25:09.062Z,16.80
2018-09-16T21:27:37.601Z,16.80
2018-09-16T21:30:06.298Z,16.80
2018-09-16T21:32:34.923Z,16.70
2018-09-16T21:35:03.585Z,16.70
2018-09-16T21:37:32.142Z,16.70
2018-09-16T21:40:00.799Z,16.60
2018-09-16T21:42:29.380Z,16.60
2018-09-16T21:44:58.025Z,16.50
2018-09-16T21:47:26.703Z,16.40
2018-09-16T21:49:55.324Z,16.40
2018-09-16T21:52:23.990Z,16.30
2018-09-16T21:54:52.619Z,16.20
2018-09-16T21:57:21.259Z,16.20
2018-09-16T21:59:49.840Z,16.20
2018-09-16T22:02:18.445Z,16.20
2018-09-16T22:04:47.114Z,16.20
2018-09-16T22:07:15.749Z,16.20
2018-09-16T22:09:44.328Z,16.20
2018-09-16T22:12:12.952Z,16.10
2018-09-16T22:14:41.524Z,16.00
2018-09-16T22:17:10.157Z,15.90
2018-09-16T22:19:38.907Z,15.80
2018-09-16T22:22:07.556Z,15.70
2018-09-16T22:24:36.110Z,15.70
2018-09-16T22:27:04.793Z,15.70
2018-09-16T22:29:33.445Z,15.80
2018-09-16T22:32:02.076Z,15.80
2018-09-16T22:34:30.701Z,15.70
2018-09-16T22:36:59.303Z,15.70
2018-09-16T22:39:27.871Z,15.60
2018-09-16T22:41:57.185Z,15.60
2018-09-16T22:44:25.827Z,15.60
2018-09-16T22:46:54.373Z,15.60
2018-09-16T22:49:22.939Z,15.50
2018-09-16T22:51:51.577Z,15.40
2018-09-16T22:54:20.159Z,15.40
2018-09-16T22:56:48.770Z,15.30
2018-09-16T22:59:17.433Z,15.30
2018-09-16T23:01:46.062Z,15.30
2018-09-16T23:04:14.714Z,15.20
2018-09-16T23:06:43.334Z,15.20
2018-09-16T23:09:13.107Z,15.20
2018-09-16T23:11:43.457Z,15.10
2018-09-16T23:14:12.081Z,15.20
2018-09-16T23:16:41.373Z,15.10
2018-09-16T23:19:09.926Z,15.10
2018-09-16T23:21:39.577Z,15.10
2018-09-16T23:24:08.151Z,15.00
2018-09-16T23:26:36.748Z,15.00
2018-09-16T23:29:05.494Z,15.00
2018-09-16T23:31:34.607Z,15.00
2018-09-16T23:34:03.185Z,14.90
2018-09-16T23:36:31.822Z,14.90
2018-09-16T23:39:00.476Z,14.90
2018-09-16T23:41:29.010Z,14.90
2018-09-16T23:43:57.578Z,14.90
2018-09-16T23:46:26.217Z,14.80
2018-09-16T23:48:54.796Z,14.80
2018-09-16T23:51:23.388Z,14.80
2018-09-16T23:53:52.030Z,14.80
2018-09-16T23:56:20.630Z,14.80
2018-09-16T23:58:49.278Z,14.70
